Aérodrome :
LOGIN :

S'inscrire | Disclaimer

   EN    FR    IT 

 










Légende :    VFR   VFR Marginal   IFR   IFR Intensif   IFR Très Intensif
Visi : 
Plafond : 
>= 8 km
>= 3000ft
5 à 8 km
1000 à 3000 ft
1500m à 5 km
500 à 1000 ft
800 à 1500m
200 à 500 ft
< 800m
< 200 ft
Symboles :   Orages  Brouillard  Fortes neiges  Fortes précipitations  Vent > 20 kt
SIGMETs :   Divers  Orages  Givrage  Turbulence  Onde Orograph.  Cendres Volcan.







- Altitude de l'aérodrome : 17 ft
- Code IATA : GRQ


EHGG - Groningen Eelde

DERNIER METAR :
  • 231325Z AUTO 03005KT 330V130 9999 NCD 28/14 Q1016 NOSIG

METARs EXPIRÉS :
  • 231255Z AUTO VRB03KT 9999 NCD 28/13 Q1016 NOSIG
  • 231225Z AUTO VRB03KT 9999 NCD 27/13 Q1016 NOSIG
  • 231155Z AUTO VRB05KT 9999 NCD 27/13 Q1017 NOSIG
  • 231125Z AUTO VRB03KT 9999 NCD 27/13 Q1017 NOSIG
  • 231055Z AUTO VRB05KT 9999 NCD 26/14 Q1017 NOSIG

TAF TAF EHGG
Valide du 23 à 12h jusqu'au 24 à 18h UTC


231103Z 2312/2418 23004KT CAVOK
TEMPO 2317/2320 36010KT
PROB30 2401/2405 4000 MIFG
BECMG 2415/2418 36010KT
Pas de NOTAMs connus pour ce terrain.



MET'MAP, la Météo Aéronautique d'un coup d'oeil ! - Copyright ORBIFLY Décembre 2007 - Disclaimer

ORBIFLY MET'MAP TEAM :

Programmation & Développement : Alexandra Zaïnal
Conception & Développement : Baudouin d'Aumeries
Co-Programmation & Développement : Marc-Olivier Méhu
Soutien technique & logistique : Manuel Goepfert

Contact : metmap@orbifly.com




SOURCES & CREDITS :

   NOAA